createdAt,value
2019-06-26T00:02:01.684Z,17.50
2019-06-26T00:04:27.850Z,17.47
2019-06-26T00:06:53.912Z,17.44
2019-06-26T00:09:19.914Z,17.41
2019-06-26T00:11:45.936Z,17.39
2019-06-26T00:14:11.943Z,17.37
2019-06-26T00:16:37.954Z,17.34
2019-06-26T00:19:03.968Z,17.33
2019-06-26T00:21:30.113Z,17.31
2019-06-26T00:23:56.017Z,17.30
2019-06-26T00:26:22.123Z,17.28
2019-06-26T00:28:48.281Z,17.24
2019-06-26T00:31:14.297Z,17.21
2019-06-26T00:33:40.413Z,17.14
2019-06-26T00:36:06.554Z,17.13
2019-06-26T00:38:32.674Z,17.11
2019-06-26T00:40:58.688Z,17.11
2019-06-26T00:43:24.692Z,17.12
2019-06-26T00:45:50.990Z,17.07
2019-06-26T00:48:17.142Z,17.03
2019-06-26T00:50:43.167Z,17.00
2019-06-26T00:53:09.076Z,16.96
2019-06-26T00:55:35.194Z,16.93
2019-06-26T00:58:01.310Z,16.90
2019-06-26T01:00:31.023Z,16.86
2019-06-26T01:02:57.035Z,16.85
2019-06-26T01:05:23.120Z,16.82
2019-06-26T01:07:49.219Z,16.78
2019-06-26T01:10:15.755Z,16.74
2019-06-26T01:12:41.846Z,16.78
2019-06-26T01:15:08.579Z,16.76
2019-06-26T01:17:34.710Z,16.75
2019-06-26T01:20:00.824Z,16.74
2019-06-26T01:22:26.982Z,16.73
2019-06-26T01:24:53.091Z,16.71
2019-06-26T01:27:19.240Z,16.77
2019-06-26T01:29:45.432Z,16.76
2019-06-26T01:32:11.540Z,16.75
2019-06-26T01:34:37.569Z,16.73
2019-06-26T01:37:03.670Z,16.72
2019-06-26T01:39:29.670Z,16.66
2019-06-26T01:41:55.744Z,16.63
2019-06-26T01:44:21.681Z,16.61
2019-06-26T01:46:47.690Z,16.58
2019-06-26T01:49:13.823Z,16.58
2019-06-26T01:51:39.873Z,16.58
2019-06-26T01:54:06.005Z,16.61
2019-06-26T01:56:32.026Z,16.61
2019-06-26T01:58:58.195Z,16.61
2019-06-26T02:01:24.355Z,16.60
2019-06-26T02:03:50.463Z,16.60
2019-06-26T02:06:16.498Z,16.64
2019-06-26T02:08:43.221Z,16.62
2019-06-26T02:11:09.214Z,16.66
2019-06-26T02:13:35.221Z,16.65
2019-06-26T02:16:01.323Z,16.61
2019-06-26T02:18:32.128Z,16.59
2019-06-26T02:20:58.303Z,16.58
2019-06-26T02:23:24.345Z,16.57
2019-06-26T02:25:50.350Z,16.57
2019-06-26T02:28:16.463Z,16.60
2019-06-26T02:30:42.580Z,16.64
2019-06-26T02:33:08.916Z,16.66
2019-06-26T02:35:34.924Z,16.66
2019-06-26T02:38:00.963Z,16.70
2019-06-26T02:40:27.075Z,16.71
2019-06-26T02:42:53.181Z,16.72
2019-06-26T02:45:19.293Z,16.71
2019-06-26T02:47:45.290Z,16.69
2019-06-26T02:50:11.418Z,16.70
2019-06-26T02:52:37.530Z,16.67
2019-06-26T02:55:06.142Z,16.64
2019-06-26T02:57:32.359Z,16.64
2019-06-26T02:59:58.631Z,16.61
2019-06-26T03:02:24.735Z,16.63
2019-06-26T03:04:50.760Z,16.63
2019-06-26T03:07:16.873Z,16.60
2019-06-26T03:09:42.996Z,16.57
2019-06-26T03:12:08.995Z,16.54
2019-06-26T03:14:35.175Z,16.52
2019-06-26T03:17:01.192Z,16.53
2019-06-26T03:19:27.210Z,16.54
2019-06-26T03:21:53.247Z,16.55
2019-06-26T03:24:19.153Z,16.53
2019-06-26T03:26:45.385Z,16.57
2019-06-26T03:29:11.423Z,16.58
2019-06-26T03:31:37.601Z,16.55
2019-06-26T03:34:03.644Z,16.58
2019-06-26T03:36:29.651Z,16.62
2019-06-26T03:38:55.655Z,16.60
2019-06-26T03:41:21.766Z,16.56
2019-06-26T03:43:47.679Z,16.60
2019-06-26T03:46:13.686Z,16.68
2019-06-26T03:48:39.791Z,16.75
2019-06-26T03:51:05.795Z,16.79
2019-06-26T03:53:31.911Z,16.82
2019-06-26T03:55:58.141Z,16.85
2019-06-26T03:58:24.141Z,16.90
2019-06-26T04:00:50.254Z,16.97
2019-06-26T04:03:16.400Z,16.99
2019-06-26T04:05:42.548Z,16.93
2019-06-26T04:08:08.484Z,16.78
2019-06-26T04:10:35.251Z,16.66
2019-06-26T04:13:01.358Z,16.58
2019-06-26T04:15:40.869Z,16.59
2019-06-26T04:17:55.412Z,16.74
2019-06-26T04:20:21.421Z,16.89
2019-06-26T04:22:47.804Z,17.00
2019-06-26T04:25:14.074Z,17.09
2019-06-26T04:27:40.129Z,17.15
2019-06-26T04:30:09.953Z,17.23
2019-06-26T04:32:36.372Z,17.25
2019-06-26T04:35:03.621Z,17.29
2019-06-26T04:37:29.816Z,17.34
2019-06-26T04:39:55.829Z,17.36
2019-06-26T04:42:21.864Z,17.34
2019-06-26T04:44:47.778Z,17.40
2019-06-26T04:47:13.797Z,17.45
2019-06-26T04:49:39.695Z,17.49
2019-06-26T04:52:05.810Z,17.50
2019-06-26T04:54:31.920Z,17.55
2019-06-26T04:56:58.050Z,17.63
2019-06-26T04:59:24.056Z,17.71
2019-06-26T05:01:50.073Z,17.77
2019-06-26T05:04:16.181Z,17.81
2019-06-26T05:06:42.198Z,17.86
2019-06-26T05:09:08.494Z,17.94
2019-06-26T05:11:34.652Z,18.02
2019-06-26T05:14:00.851Z,18.07
2019-06-26T05:16:26.989Z,18.15
2019-06-26T05:18:53.002Z,18.23
2019-06-26T05:21:19.139Z,18.33
2019-06-26T05:23:45.350Z,18.44
2019-06-26T05:26:11.469Z,18.54
2019-06-26T05:28:37.588Z,18.64
2019-06-26T05:31:03.699Z,18.70
2019-06-26T05:33:29.727Z,18.79
2019-06-26T05:35:55.855Z,18.88
2019-06-26T05:38:21.763Z,18.98
2019-06-26T05:40:47.904Z,19.07
2019-06-26T05:43:13.938Z,19.14
2019-06-26T05:45:40.060Z,19.24
2019-06-26T05:48:06.439Z,19.35
2019-06-26T05:50:32.564Z,19.43
2019-06-26T05:52:58.684Z,19.52
2019-06-26T05:55:24.817Z,19.62
2019-06-26T05:57:53.375Z,19.73
2019-06-26T06:00:19.691Z,19.82
2019-06-26T06:02:45.850Z,19.90
2019-06-26T06:05:12.567Z,19.98
2019-06-26T06:07:38.667Z,20.04
2019-06-26T06:10:05.952Z,20.13
2019-06-26T06:12:32.425Z,20.23
2019-06-26T06:14:58.970Z,20.34
2019-06-26T06:17:26.233Z,20.50
2019-06-26T06:19:52.810Z,20.63
2019-06-26T06:22:19.016Z,20.82
2019-06-26T06:24:45.201Z,20.95
2019-06-26T06:27:11.232Z,21.04
2019-06-26T06:29:37.397Z,21.19
2019-06-26T06:32:05.036Z,21.32
2019-06-26T06:34:31.181Z,21.37
2019-06-26T06:36:57.140Z,21.45
2019-06-26T06:39:23.275Z,21.54
2019-06-26T06:41:49.291Z,21.64
2019-06-26T06:44:15.427Z,21.74
2019-06-26T06:46:42.362Z,21.86
2019-06-26T06:49:08.477Z,22.09
2019-06-26T06:51:36.946Z,22.21
2019-06-26T06:54:03.370Z,22.32
2019-06-26T06:56:29.290Z,22.48
2019-06-26T06:58:55.289Z,22.62
2019-06-26T07:01:21.427Z,22.76
2019-06-26T07:03:47.545Z,22.87
2019-06-26T07:06:13.671Z,22.97
2019-06-26T07:08:39.823Z,23.04
2019-06-26T07:11:05.831Z,23.09
2019-06-26T07:13:31.944Z,23.19
2019-06-26T07:15:58.058Z,23.31
2019-06-26T07:18:24.206Z,23.47
2019-06-26T07:20:50.335Z,23.53
2019-06-26T07:23:16.333Z,23.52
2019-06-26T07:25:42.438Z,23.61
2019-06-26T07:28:08.577Z,23.72
2019-06-26T07:30:34.573Z,23.80
2019-06-26T07:33:00.489Z,23.84
2019-06-26T07:35:26.510Z,23.89
2019-06-26T07:37:52.625Z,23.94
2019-06-26T07:40:19.049Z,24.09
2019-06-26T07:42:45.071Z,24.14
2019-06-26T07:45:11.531Z,24.14
2019-06-26T07:47:43.552Z,24.21
2019-06-26T07:50:06.256Z,24.27
2019-06-26T07:52:32.414Z,24.33
2019-06-26T07:54:58.728Z,24.47
2019-06-26T07:57:24.793Z,24.69
2019-06-26T07:59:50.808Z,24.94
2019-06-26T08:02:16.870Z,25.11
2019-06-26T08:04:43.002Z,25.22
2019-06-26T08:07:09.151Z,25.34
2019-06-26T08:09:35.175Z,25.43
2019-06-26T08:12:01.338Z,25.45
2019-06-26T08:14:27.263Z,25.49
2019-06-26T08:16:53.418Z,25.61
2019-06-26T08:19:19.439Z,25.74
2019-06-26T08:21:46.734Z,25.82
2019-06-26T08:24:13.057Z,25.91
2019-06-26T08:26:39.073Z,25.99
2019-06-26T08:29:05.175Z,26.04
2019-06-26T08:31:31.293Z,26.17
2019-06-26T08:33:57.238Z,26.29
2019-06-26T08:36:23.353Z,26.34
2019-06-26T08:38:49.394Z,26.34
2019-06-26T08:41:15.458Z,26.32
2019-06-26T08:43:41.719Z,26.32
2019-06-26T08:46:07.753Z,26.43
2019-06-26T08:48:39.410Z,26.50
2019-06-26T08:51:01.782Z,26.52
2019-06-26T08:53:27.903Z,26.53
2019-06-26T08:55:54.030Z,26.59
2019-06-26T08:58:20.073Z,26.74
2019-06-26T09:00:46.256Z,26.80
2019-06-26T09:03:12.345Z,26.85
2019-06-26T09:05:48.000Z,26.97
2019-06-26T09:08:06.324Z,27.10
2019-06-26T09:10:32.418Z,27.16
2019-06-26T09:12:58.557Z,27.17
2019-06-26T09:15:24.666Z,27.23
2019-06-26T09:17:50.690Z,27.28
2019-06-26T09:20:32.489Z,27.40
2019-06-26T09:22:58.668Z,27.43
2019-06-26T09:25:24.824Z,27.45
2019-06-26T09:27:50.931Z,27.52
2019-06-26T09:30:17.093Z,27.65
2019-06-26T09:32:43.116Z,27.75
2019-06-26T09:35:09.353Z,27.81
2019-06-26T09:37:35.370Z,27.86
2019-06-26T09:40:01.549Z,27.94
2019-06-26T09:42:27.570Z,28.03
2019-06-26T09:44:53.581Z,28.06
2019-06-26T09:47:19.662Z,28.10
2019-06-26T09:49:45.745Z,28.22
2019-06-26T09:52:11.886Z,28.23
2019-06-26T09:54:38.014Z,28.31
2019-06-26T09:57:04.122Z,28.36
2019-06-26T09:59:30.279Z,28.47
2019-06-26T10:01:56.189Z,28.56
2019-06-26T10:04:22.215Z,28.59
2019-06-26T10:06:48.350Z,28.56
2019-06-26T10:09:14.359Z,28.49
2019-06-26T10:11:40.388Z,28.52
2019-06-26T10:14:06.672Z,28.62
2019-06-26T10:16:32.818Z,28.72
2019-06-26T10:19:09.435Z,28.80
2019-06-26T10:21:26.859Z,28.85
2019-06-26T10:23:52.777Z,28.91
2019-06-26T10:26:18.890Z,28.95
2019-06-26T10:28:45.047Z,29.00
2019-06-26T10:31:11.330Z,29.06
2019-06-26T10:33:37.452Z,29.13
2019-06-26T10:36:03.584Z,29.18
2019-06-26T10:38:29.543Z,29.26
2019-06-26T10:40:55.712Z,29.32
2019-06-26T10:43:21.822Z,29.36
2019-06-26T10:45:47.863Z,29.38
2019-06-26T10:48:13.866Z,29.44
2019-06-26T10:50:49.429Z,29.54
2019-06-26T10:53:08.022Z,29.58
2019-06-26T10:55:34.166Z,29.59
2019-06-26T10:58:00.178Z,29.54
2019-06-26T11:00:27.552Z,29.56
2019-06-26T11:02:53.579Z,29.58
2019-06-26T11:05:19.977Z,29.60
2019-06-26T11:07:46.098Z,29.69
2019-06-26T11:10:12.739Z,29.75
2019-06-26T11:12:38.923Z,29.93
2019-06-26T11:15:06.365Z,30.10
2019-06-26T11:17:32.483Z,30.16
2019-06-26T11:19:58.532Z,30.26
2019-06-26T11:22:24.644Z,30.30
2019-06-26T11:24:50.710Z,30.36
2019-06-26T11:27:16.827Z,30.41
2019-06-26T11:29:42.923Z,30.45
2019-06-26T11:32:09.735Z,30.57
2019-06-26T11:34:35.988Z,30.65
2019-06-26T11:37:04.305Z,30.63
2019-06-26T11:39:30.200Z,30.80
2019-06-26T11:41:56.377Z,30.96
2019-06-26T11:44:22.493Z,31.07
2019-06-26T11:46:48.617Z,31.14
2019-06-26T11:49:14.626Z,31.15
2019-06-26T11:51:40.644Z,31.18
2019-06-26T11:54:06.754Z,31.27
2019-06-26T11:56:32.858Z,31.38
2019-06-26T11:58:58.983Z,31.47
2019-06-26T12:01:25.094Z,31.59
2019-06-26T12:03:51.243Z,31.68
2019-06-26T12:06:19.102Z,31.64
2019-06-26T12:08:45.509Z,31.56
2019-06-26T12:11:11.612Z,31.46
2019-06-26T12:13:37.764Z,31.58
2019-06-26T12:16:03.862Z,31.74
2019-06-26T12:18:29.868Z,31.70
2019-06-26T12:20:55.911Z,31.62
2019-06-26T12:23:22.023Z,31.58
2019-06-26T12:25:48.042Z,31.55
2019-06-26T12:28:13.947Z,31.50
2019-06-26T12:30:40.083Z,31.67
2019-06-26T12:33:06.185Z,31.76
2019-06-26T12:35:32.353Z,31.87
2019-06-26T12:37:58.572Z,32.03
2019-06-26T12:40:24.699Z,32.02
2019-06-26T12:42:55.510Z,31.92
2019-06-26T12:45:20.319Z,31.94
2019-06-26T12:47:46.430Z,31.96
2019-06-26T12:50:13.756Z,32.01
2019-06-26T12:52:39.891Z,32.23
2019-06-26T12:55:06.957Z,32.35
2019-06-26T12:57:32.993Z,32.32
2019-06-26T12:59:59.129Z,32.38
2019-06-26T13:02:25.297Z,32.32
2019-06-26T13:04:51.408Z,32.19
2019-06-26T13:07:17.540Z,32.36
2019-06-26T13:09:43.660Z,32.42
2019-06-26T13:12:09.694Z,32.56
2019-06-26T13:14:35.809Z,32.78
2019-06-26T13:17:01.930Z,32.98
2019-06-26T13:19:28.037Z,33.03
2019-06-26T13:21:54.202Z,32.94
2019-06-26T13:24:20.333Z,32.91
2019-06-26T13:26:46.436Z,32.85
2019-06-26T13:29:12.472Z,32.87
2019-06-26T13:31:38.728Z,32.94
2019-06-26T13:34:04.758Z,33.07
2019-06-26T13:36:30.810Z,33.19
2019-06-26T13:38:56.921Z,33.08
2019-06-26T13:41:23.036Z,32.98
2019-06-26T13:43:49.046Z,33.01
2019-06-26T13:46:15.152Z,33.19
2019-06-26T13:48:41.467Z,33.36
2019-06-26T13:51:09.630Z,33.36
2019-06-26T13:53:35.629Z,33.46
2019-06-26T13:56:02.135Z,33.53
2019-06-26T13:58:29.122Z,33.62
2019-06-26T14:00:56.683Z,33.76
2019-06-26T14:03:22.869Z,33.84
2019-06-26T14:05:48.884Z,33.88
2019-06-26T14:08:14.802Z,33.83
2019-06-26T14:10:40.845Z,33.70
2019-06-26T14:13:06.947Z,33.58
2019-06-26T14:15:32.951Z,33.40
2019-06-26T14:17:59.069Z,33.28
2019-06-26T14:20:25.118Z,33.28
2019-06-26T14:22:51.131Z,33.29
2019-06-26T14:25:17.575Z,33.34
2019-06-26T14:27:43.697Z,33.55
2019-06-26T14:30:10.705Z,33.59
2019-06-26T14:32:36.834Z,33.66
2019-06-26T14:35:06.359Z,33.69
2019-06-26T14:37:32.374Z,33.65
2019-06-26T14:39:58.412Z,33.69
2019-06-26T14:42:24.524Z,33.71
2019-06-26T14:44:52.719Z,33.49
2019-06-26T14:47:18.608Z,33.54
2019-06-26T14:49:44.817Z,33.77
2019-06-26T14:52:10.926Z,33.96
2019-06-26T14:54:36.953Z,34.09
2019-06-26T14:57:02.975Z,33.95
2019-06-26T14:59:28.973Z,33.94
2019-06-26T15:01:55.094Z,34.09
2019-06-26T15:04:21.144Z,34.19
2019-06-26T15:06:47.153Z,34.21
2019-06-26T15:09:13.295Z,34.24
2019-06-26T15:11:39.443Z,34.02
2019-06-26T15:14:06.441Z,33.89
2019-06-26T15:16:32.681Z,33.94
2019-06-26T15:18:58.848Z,34.15
2019-06-26T15:21:24.949Z,34.15
2019-06-26T15:23:50.963Z,34.03
2019-06-26T15:26:17.115Z,33.89
2019-06-26T15:28:43.019Z,33.83
2019-06-26T15:31:09.188Z,33.82
2019-06-26T15:33:36.649Z,33.75
2019-06-26T15:36:03.219Z,33.68
2019-06-26T15:38:29.381Z,33.54
2019-06-26T15:40:55.429Z,33.63
2019-06-26T15:43:21.546Z,33.82
2019-06-26T15:45:47.578Z,33.68
2019-06-26T15:48:13.496Z,33.63
2019-06-26T15:50:39.440Z,33.84
2019-06-26T15:53:05.450Z,33.99
2019-06-26T15:55:31.474Z,34.08
2019-06-26T15:57:57.606Z,34.16
2019-06-26T16:00:23.713Z,34.17
2019-06-26T16:02:49.657Z,34.12
2019-06-26T16:05:15.768Z,34.23
2019-06-26T16:07:41.977Z,34.11
2019-06-26T16:10:08.085Z,34.02
2019-06-26T16:12:34.214Z,33.89
2019-06-26T16:15:00.253Z,33.76
2019-06-26T16:17:37.119Z,33.66
2019-06-26T16:20:06.367Z,33.56
2019-06-26T16:22:33.019Z,33.51
2019-06-26T16:24:59.213Z,33.55
2019-06-26T16:27:25.345Z,33.50
2019-06-26T16:29:51.356Z,33.51
2019-06-26T16:32:17.410Z,33.55
2019-06-26T16:34:43.557Z,33.51
2019-06-26T16:37:09.672Z,33.51
2019-06-26T16:39:35.684Z,33.50
2019-06-26T16:42:01.694Z,33.57
2019-06-26T16:44:27.708Z,33.49
2019-06-26T16:46:53.753Z,33.39
2019-06-26T16:49:19.770Z,33.33
2019-06-26T16:51:45.785Z,33.36
2019-06-26T16:54:11.793Z,33.29
2019-06-26T16:56:37.737Z,33.29
2019-06-26T16:59:03.839Z,33.33
2019-06-26T17:01:29.852Z,33.33
2019-06-26T17:03:55.873Z,33.33
2019-06-26T17:06:21.919Z,33.07
2019-06-26T17:08:48.825Z,32.84
2019-06-26T17:11:14.845Z,32.53
2019-06-26T17:13:40.856Z,32.44
2019-06-26T17:16:06.979Z,32.42
2019-06-26T17:18:32.979Z,32.39
2019-06-26T17:20:59.099Z,32.30
2019-06-26T17:23:25.219Z,32.25
2019-06-26T17:25:51.238Z,32.13
2019-06-26T17:28:17.379Z,31.92
2019-06-26T17:30:43.685Z,31.82
2019-06-26T17:33:09.818Z,31.81
2019-06-26T17:35:36.563Z,31.80
2019-06-26T17:38:02.686Z,31.72
2019-06-26T17:40:28.937Z,31.69
2019-06-26T17:43:08.168Z,31.60
2019-06-26T17:45:23.125Z,31.41
2019-06-26T17:47:49.311Z,31.35
2019-06-26T17:50:16.685Z,31.21
2019-06-26T17:52:42.761Z,31.13
2019-06-26T17:55:09.190Z,30.96
2019-06-26T17:57:35.197Z,31.00
2019-06-26T18:00:01.548Z,30.77
2019-06-26T18:02:27.551Z,30.59
2019-06-26T18:04:53.620Z,30.35
2019-06-26T18:07:19.715Z,30.27
2019-06-26T18:09:45.630Z,30.25
2019-06-26T18:12:11.647Z,30.22
2019-06-26T18:14:37.802Z,30.08
2019-06-26T18:17:03.985Z,29.97
2019-06-26T18:19:30.783Z,29.96
2019-06-26T18:21:56.920Z,29.89
2019-06-26T18:24:22.937Z,29.75
2019-06-26T18:26:48.959Z,29.57
2019-06-26T18:29:14.960Z,29.52
2019-06-26T18:31:40.973Z,29.40
2019-06-26T18:34:06.981Z,29.25
2019-06-26T18:36:33.764Z,29.17
2019-06-26T18:38:59.929Z,29.07
2019-06-26T18:41:26.040Z,28.98
2019-06-26T18:43:51.948Z,28.90
2019-06-26T18:46:18.068Z,28.76
2019-06-26T18:48:44.107Z,28.62
2019-06-26T18:51:10.164Z,28.49
2019-06-26T18:53:36.170Z,28.35
2019-06-26T18:56:02.319Z,28.28
2019-06-26T18:58:30.760Z,28.15
2019-06-26T19:00:56.449Z,27.99
2019-06-26T19:03:22.449Z,27.80
2019-06-26T19:05:48.570Z,27.67
2019-06-26T19:08:14.713Z,27.53
2019-06-26T19:10:41.763Z,27.41
2019-06-26T19:13:07.884Z,27.30
2019-06-26T19:15:33.996Z,27.18
2019-06-26T19:18:00.110Z,27.06
2019-06-26T19:20:26.126Z,26.91
2019-06-26T19:22:52.342Z,26.80
2019-06-26T19:25:18.451Z,26.68
2019-06-26T19:27:44.459Z,26.57
2019-06-26T19:30:10.688Z,26.41
2019-06-26T19:32:37.631Z,26.27
2019-06-26T19:35:20.171Z,26.17
2019-06-26T19:37:32.577Z,26.06
2019-06-26T19:39:58.516Z,25.94
2019-06-26T19:42:24.550Z,25.83
2019-06-26T19:44:50.613Z,25.68
2019-06-26T19:47:16.730Z,25.60
2019-06-26T19:49:42.846Z,25.54
2019-06-26T19:52:08.876Z,25.45
2019-06-26T19:54:34.999Z,25.41
2019-06-26T19:57:01.067Z,25.31
2019-06-26T19:59:27.204Z,25.17
2019-06-26T20:01:53.126Z,25.06
2019-06-26T20:04:19.289Z,25.05
2019-06-26T20:06:45.424Z,24.94
2019-06-26T20:09:11.440Z,24.72
2019-06-26T20:11:37.567Z,24.66
2019-06-26T20:14:03.690Z,24.63
2019-06-26T20:16:29.720Z,24.58
2019-06-26T20:18:55.773Z,24.52
2019-06-26T20:21:21.943Z,24.37
2019-06-26T20:23:48.059Z,24.37
2019-06-26T20:26:14.183Z,24.33
2019-06-26T20:28:40.229Z,24.30
2019-06-26T20:31:06.242Z,24.26
2019-06-26T20:33:32.354Z,24.22
2019-06-26T20:35:58.383Z,24.17
2019-06-26T20:38:24.512Z,23.94
2019-06-26T20:40:50.656Z,23.94
2019-06-26T20:43:16.752Z,23.97
2019-06-26T20:45:42.887Z,23.89
2019-06-26T20:48:08.909Z,23.82
2019-06-26T20:50:34.930Z,23.74
2019-06-26T20:53:00.941Z,23.68
2019-06-26T20:55:26.845Z,23.57
2019-06-26T20:57:52.875Z,23.54
2019-06-26T21:00:22.364Z,23.48
2019-06-26T21:02:47.071Z,23.43
2019-06-26T21:05:13.287Z,23.34
2019-06-26T21:07:39.298Z,23.29
2019-06-26T21:10:05.657Z,23.24
2019-06-26T21:12:31.572Z,23.20
2019-06-26T21:14:57.491Z,23.09
2019-06-26T21:17:25.694Z,23.00
2019-06-26T21:19:51.308Z,22.93
2019-06-26T21:22:17.216Z,22.89
2019-06-26T21:24:43.238Z,22.85
2019-06-26T21:27:09.247Z,22.73
2019-06-26T21:29:35.357Z,22.71
2019-06-26T21:32:01.263Z,22.63
2019-06-26T21:34:27.414Z,22.55
2019-06-26T21:36:53.410Z,22.50
2019-06-26T21:39:19.333Z,22.45
2019-06-26T21:41:45.410Z,22.37
2019-06-26T21:44:11.513Z,22.33
2019-06-26T21:46:37.690Z,22.30
2019-06-26T21:49:03.595Z,22.25
2019-06-26T21:51:29.727Z,22.21
2019-06-26T21:53:55.830Z,22.15
2019-06-26T21:56:21.939Z,22.09
2019-06-26T21:58:48.054Z,22.05
2019-06-26T22:01:14.183Z,21.99
2019-06-26T22:03:40.323Z,21.95
2019-06-26T22:06:06.454Z,21.91
2019-06-26T22:08:32.785Z,21.84
2019-06-26T22:10:58.924Z,21.80
2019-06-26T22:13:25.027Z,21.79
2019-06-26T22:15:51.167Z,21.77
2019-06-26T22:18:17.228Z,21.71
2019-06-26T22:20:43.353Z,21.69
2019-06-26T22:23:09.489Z,21.65
2019-06-26T22:25:49.857Z,21.57
2019-06-26T22:28:03.644Z,21.53
2019-06-26T22:30:29.754Z,21.49
2019-06-26T22:32:55.891Z,21.44
2019-06-26T22:35:22.010Z,21.41
2019-06-26T22:37:48.123Z,21.33
2019-06-26T22:40:14.337Z,21.33
2019-06-26T22:42:40.457Z,21.26
2019-06-26T22:45:07.481Z,21.26
2019-06-26T22:47:33.619Z,21.23
2019-06-26T22:49:59.737Z,21.19
2019-06-26T22:52:25.935Z,21.16
2019-06-26T22:54:52.040Z,21.12
2019-06-26T22:57:18.415Z,21.09
2019-06-26T22:59:44.529Z,21.05
2019-06-26T23:02:10.651Z,21.02
2019-06-26T23:04:36.745Z,20.98
2019-06-26T23:07:02.845Z,20.94
2019-06-26T23:09:28.853Z,20.91
2019-06-26T23:11:54.974Z,20.87
2019-06-26T23:14:21.098Z,20.86
2019-06-26T23:16:47.155Z,20.84
2019-06-26T23:19:14.977Z,20.82
2019-06-26T23:21:41.325Z,20.78
2019-06-26T23:24:07.474Z,20.75
2019-06-26T23:26:33.590Z,20.71
2019-06-26T23:28:59.719Z,20.70
2019-06-26T23:31:25.735Z,20.61
2019-06-26T23:33:51.888Z,20.59
2019-06-26T23:36:17.910Z,20.55
2019-06-26T23:38:43.930Z,20.54
2019-06-26T23:41:10.046Z,20.54
2019-06-26T23:43:36.067Z,20.51
2019-06-26T23:46:02.185Z,20.49
2019-06-26T23:48:28.296Z,20.44
2019-06-26T23:50:54.318Z,20.45
2019-06-26T23:53:20.454Z,20.42
2019-06-26T23:55:46.470Z,20.40
2019-06-26T23:58:12.605Z,20.41
